createdAt,value
2022-09-03T00:00:37.743Z,0.00
2022-09-03T00:01:37.805Z,0.00
2022-09-03T00:02:37.863Z,0.00
2022-09-03T00:03:37.708Z,0.00
2022-09-03T00:04:37.697Z,0.00
2022-09-03T00:05:37.685Z,0.00
2022-09-03T00:06:37.676Z,0.00
2022-09-03T00:07:37.663Z,0.00
2022-09-03T00:08:37.652Z,0.00
2022-09-03T00:09:37.641Z,0.00
2022-09-03T00:10:37.707Z,0.00
2022-09-03T00:11:37.617Z,0.00
2022-09-03T00:12:37.607Z,0.00
2022-09-03T00:13:37.597Z,0.00
2022-09-03T00:14:37.585Z,0.00
2022-09-03T00:15:37.640Z,0.00
2022-09-03T00:16:37.563Z,0.00
2022-09-03T00:17:37.550Z,0.00
2022-09-03T00:18:37.545Z,0.00
2022-09-03T00:19:37.529Z,0.00
2022-09-03T00:20:37.520Z,0.00
2022-09-03T00:21:37.505Z,0.00
2022-09-03T00:22:37.497Z,0.00
2022-09-03T00:23:37.484Z,0.00
2022-09-03T00:24:37.475Z,0.00
2022-09-03T00:25:37.459Z,0.00
2022-09-03T00:26:37.452Z,0.00
2022-09-03T00:27:37.438Z,0.00
2022-09-03T00:28:37.428Z,0.00
2022-09-03T00:29:37.417Z,0.00
2022-09-03T00:30:37.405Z,0.00
2022-09-03T00:31:37.525Z,0.00
2022-09-03T00:32:37.384Z,0.00
2022-09-03T00:33:37.368Z,0.00
2022-09-03T00:34:37.360Z,0.00
2022-09-03T00:35:37.351Z,0.00
2022-09-03T00:36:37.340Z,0.00
2022-09-03T00:37:38.297Z,0.00
2022-09-03T00:38:37.319Z,0.00
2022-09-03T00:39:37.338Z,0.00
2022-09-03T00:40:37.299Z,0.00
2022-09-03T00:41:37.281Z,0.00
2022-09-03T00:42:37.276Z,0.00
2022-09-03T00:43:37.257Z,0.00
2022-09-03T00:44:37.251Z,0.00
2022-09-03T00:45:37.234Z,0.00
2022-09-03T00:46:37.304Z,0.00
2022-09-03T00:47:37.214Z,0.00
2022-09-03T00:48:37.202Z,0.00
2022-09-03T00:49:37.190Z,0.00
2022-09-03T00:50:37.180Z,0.00
2022-09-03T00:51:37.167Z,0.00
2022-09-03T00:52:37.160Z,0.00
2022-09-03T00:53:37.146Z,0.00
2022-09-03T00:54:37.135Z,0.00
2022-09-03T00:55:37.123Z,0.00
2022-09-03T00:56:37.113Z,0.00
2022-09-03T00:57:37.098Z,0.00
2022-09-03T00:58:37.094Z,0.00
2022-09-03T00:59:37.120Z,0.00
2022-09-03T01:00:37.068Z,0.00
2022-09-03T01:01:37.125Z,0.00
2022-09-03T01:02:37.182Z,0.00
2022-09-03T01:03:37.033Z,0.00
2022-09-03T01:04:37.022Z,0.00
2022-09-03T01:05:37.006Z,0.00
2022-09-03T01:06:37.001Z,0.00
2022-09-03T01:07:36.987Z,0.00
2022-09-03T01:08:36.978Z,0.00
2022-09-03T01:09:36.967Z,0.00
2022-09-03T01:10:36.957Z,0.00
2022-09-03T01:11:36.942Z,0.00
2022-09-03T01:12:36.936Z,0.00
2022-09-03T01:13:36.919Z,0.00
2022-09-03T01:14:36.913Z,0.00
2022-09-03T01:15:36.995Z,0.00
2022-09-03T01:16:36.891Z,0.00
2022-09-03T01:17:36.876Z,0.00
2022-09-03T01:18:36.865Z,0.00
2022-09-03T01:19:36.853Z,0.00
2022-09-03T01:20:36.845Z,0.00
2022-09-03T01:21:36.836Z,0.00
2022-09-03T01:22:36.819Z,0.00
2022-09-03T01:23:36.808Z,0.00
2022-09-03T01:24:36.797Z,0.00
2022-09-03T01:25:36.788Z,0.00
2022-09-03T01:26:36.776Z,0.00
2022-09-03T01:27:36.762Z,0.00
2022-09-03T01:28:36.753Z,0.00
2022-09-03T01:29:39.690Z,0.00
2022-09-03T01:30:36.731Z,0.00
2022-09-03T01:31:36.718Z,0.00
2022-09-03T01:32:36.707Z,0.00
2022-09-03T01:33:36.694Z,0.00
2022-09-03T01:34:36.688Z,0.00
2022-09-03T01:35:36.673Z,0.00
2022-09-03T01:36:36.665Z,0.00
2022-09-03T01:37:36.648Z,0.00
2022-09-03T01:38:36.638Z,0.00
2022-09-03T01:39:36.668Z,0.00
2022-09-03T01:40:36.618Z,0.00
2022-09-03T01:41:36.603Z,0.00
2022-09-03T01:42:36.595Z,0.00
2022-09-03T01:43:36.878Z,0.00
2022-09-03T01:44:36.570Z,0.00
2022-09-03T01:45:36.560Z,0.00
2022-09-03T01:46:36.619Z,0.00
2022-09-03T01:47:36.537Z,0.00
2022-09-03T01:48:36.524Z,0.00
2022-09-03T01:49:36.513Z,0.00
2022-09-03T01:50:36.502Z,0.00
2022-09-03T01:51:36.493Z,0.00
2022-09-03T01:52:36.478Z,0.00
2022-09-03T01:53:36.467Z,0.00
2022-09-03T01:54:36.458Z,0.00
2022-09-03T01:55:36.445Z,0.00
2022-09-03T01:56:36.436Z,0.00
2022-09-03T01:57:37.110Z,0.00
2022-09-03T01:58:36.411Z,0.00
2022-09-03T01:59:36.400Z,0.00
2022-09-03T02:00:36.390Z,0.00
2022-09-03T02:01:36.413Z,0.00
2022-09-03T02:02:36.399Z,0.00
2022-09-03T02:03:36.353Z,0.00
2022-09-03T02:04:36.344Z,0.00
2022-09-03T02:05:36.331Z,0.00
2022-09-03T02:06:36.321Z,0.00
2022-09-03T02:07:36.310Z,0.00
2022-09-03T02:08:36.336Z,0.00
2022-09-03T02:09:36.286Z,0.00
2022-09-03T02:10:36.275Z,0.00
2022-09-03T02:11:36.263Z,0.00
2022-09-03T02:12:36.255Z,0.00
2022-09-03T02:13:36.239Z,0.00
2022-09-03T02:14:36.230Z,0.00
2022-09-03T02:15:36.287Z,0.00
2022-09-03T02:16:36.207Z,0.00
2022-09-03T02:17:36.399Z,0.00
2022-09-03T02:18:36.184Z,0.00
2022-09-03T02:19:36.172Z,0.00
2022-09-03T02:20:36.164Z,0.00
2022-09-03T02:21:36.148Z,0.00
2022-09-03T02:22:36.142Z,0.00
2022-09-03T02:23:36.127Z,0.00
2022-09-03T02:24:36.115Z,0.00
2022-09-03T02:25:36.106Z,0.00
2022-09-03T02:26:36.094Z,0.00
2022-09-03T02:27:36.082Z,0.00
2022-09-03T02:28:36.123Z,0.00
2022-09-03T02:29:36.057Z,0.00
2022-09-03T02:30:36.105Z,0.00
2022-09-03T02:31:36.035Z,0.00
2022-09-03T02:32:36.032Z,0.00
2022-09-03T02:33:36.012Z,0.00
2022-09-03T02:34:36.003Z,0.00
2022-09-03T02:35:35.989Z,0.00
2022-09-03T02:36:35.980Z,0.00
2022-09-03T02:37:35.966Z,0.00
2022-09-03T02:38:35.975Z,0.00
2022-09-03T02:39:39.307Z,0.00
2022-09-03T02:40:35.936Z,0.00
2022-09-03T02:41:35.921Z,0.00
2022-09-03T02:42:35.909Z,0.00
2022-09-03T02:43:35.895Z,0.00
2022-09-03T02:44:35.888Z,0.00
2022-09-03T02:45:35.878Z,0.00
2022-09-03T02:46:35.867Z,0.00
2022-09-03T02:47:35.855Z,0.00
2022-09-03T02:48:35.842Z,0.00
2022-09-03T02:49:35.828Z,0.00
2022-09-03T02:50:35.818Z,0.00
2022-09-03T02:51:35.806Z,0.00
2022-09-03T02:52:35.798Z,0.00
2022-09-03T02:53:35.783Z,0.00
2022-09-03T02:54:35.773Z,0.00
2022-09-03T02:55:35.762Z,0.00
2022-09-03T02:56:35.752Z,0.00
2022-09-03T02:57:35.736Z,0.00
2022-09-03T02:58:35.728Z,0.00
2022-09-03T02:59:35.715Z,0.00
2022-09-03T03:00:35.706Z,0.00
2022-09-03T03:01:35.752Z,0.00
2022-09-03T03:02:35.727Z,0.00
2022-09-03T03:03:35.671Z,0.00
2022-09-03T03:04:35.661Z,0.00
2022-09-03T03:05:35.650Z,0.00
2022-09-03T03:06:35.638Z,0.00
2022-09-03T03:07:35.627Z,0.00
2022-09-03T03:08:35.620Z,0.00
2022-09-03T03:09:35.604Z,0.00
2022-09-03T03:10:35.595Z,0.00
2022-09-03T03:11:35.583Z,0.00
2022-09-03T03:12:35.573Z,0.00
2022-09-03T03:13:35.560Z,0.00
2022-09-03T03:14:35.551Z,0.00
2022-09-03T03:15:35.537Z,0.00
2022-09-03T03:16:35.599Z,0.00
2022-09-03T03:17:35.515Z,0.00
2022-09-03T03:18:35.503Z,0.00
2022-09-03T03:19:35.490Z,0.00
2022-09-03T03:20:35.482Z,0.00
2022-09-03T03:21:35.468Z,0.00
2022-09-03T03:22:35.459Z,0.00
2022-09-03T03:23:35.447Z,0.00
2022-09-03T03:24:35.436Z,0.00
2022-09-03T03:25:35.425Z,0.00
2022-09-03T03:26:35.418Z,0.00
2022-09-03T03:27:35.403Z,0.00
2022-09-03T03:28:35.392Z,0.00
2022-09-03T03:29:35.380Z,0.00
2022-09-03T03:30:35.443Z,0.00
2022-09-03T03:31:35.360Z,0.00
2022-09-03T03:32:35.349Z,0.00
2022-09-03T03:33:35.346Z,0.00
2022-09-03T03:34:35.326Z,0.00
2022-09-03T03:35:35.313Z,0.00
2022-09-03T03:36:35.305Z,0.00
2022-09-03T03:37:35.291Z,0.00
2022-09-03T03:38:35.281Z,0.00
2022-09-03T03:39:35.355Z,0.00
2022-09-03T03:40:35.260Z,0.00
2022-09-03T03:41:35.246Z,0.00
2022-09-03T03:42:35.237Z,0.00
2022-09-03T03:43:35.224Z,0.00
2022-09-03T03:44:35.217Z,0.00
2022-09-03T03:45:35.272Z,0.00
2022-09-03T03:46:35.191Z,0.00
2022-09-03T03:47:35.179Z,0.00
2022-09-03T03:48:35.171Z,0.00
2022-09-03T03:49:35.156Z,0.00
2022-09-03T03:50:35.151Z,0.00
2022-09-03T03:51:35.135Z,0.00
2022-09-03T03:52:35.125Z,0.00
2022-09-03T03:53:35.115Z,0.00
2022-09-03T03:54:35.102Z,0.00
2022-09-03T03:55:35.405Z,0.00
2022-09-03T03:56:35.079Z,0.00
2022-09-03T03:57:35.077Z,0.00
2022-09-03T03:58:35.059Z,0.00
2022-09-03T03:59:35.047Z,0.00
2022-09-03T04:00:35.038Z,0.00
2022-09-03T04:01:35.149Z,0.00
2022-09-03T04:02:38.911Z,0.00
2022-09-03T04:03:35.006Z,0.00
2022-09-03T04:04:34.991Z,0.00
2022-09-03T04:05:34.981Z,0.00
2022-09-03T04:06:34.969Z,0.00
2022-09-03T04:07:34.957Z,0.00
2022-09-03T04:08:34.951Z,0.00
2022-09-03T04:09:34.988Z,0.00
2022-09-03T04:10:34.925Z,0.00
2022-09-03T04:11:34.911Z,0.00
2022-09-03T04:12:34.904Z,0.00
2022-09-03T04:13:34.890Z,0.00
2022-09-03T04:14:34.881Z,0.00
2022-09-03T04:15:34.869Z,0.00
2022-09-03T04:16:34.905Z,0.00
2022-09-03T04:17:34.844Z,0.00
2022-09-03T04:18:34.857Z,0.00
2022-09-03T04:19:34.832Z,0.00
2022-09-03T04:20:34.812Z,0.00
2022-09-03T04:21:34.840Z,0.00
2022-09-03T04:22:34.843Z,0.00
2022-09-03T04:23:34.907Z,0.00
2022-09-03T04:24:34.876Z,0.00
2022-09-03T04:25:34.921Z,0.00
2022-09-03T04:26:34.858Z,0.00
2022-09-03T04:27:34.757Z,0.00
2022-09-03T04:28:34.722Z,0.00
2022-09-03T04:29:34.712Z,0.00
2022-09-03T04:30:34.747Z,0.00
2022-09-03T04:31:34.689Z,0.00
2022-09-03T04:32:34.678Z,0.00
2022-09-03T04:33:34.669Z,0.00
2022-09-03T04:34:34.655Z,0.00
2022-09-03T04:35:35.886Z,0.00
2022-09-03T04:36:34.632Z,5.62
2022-09-03T04:37:34.626Z,5.62
2022-09-03T04:38:34.609Z,5.62
2022-09-03T04:39:34.640Z,5.62
2022-09-03T04:40:34.588Z,5.62
2022-09-03T04:41:34.580Z,5.62
2022-09-03T04:42:34.566Z,5.62
2022-09-03T04:43:34.557Z,5.62
2022-09-03T04:44:34.545Z,5.62
2022-09-03T04:45:34.600Z,5.62
2022-09-03T04:46:34.523Z,11.25
2022-09-03T04:47:34.514Z,11.25
2022-09-03T04:48:34.500Z,11.25
2022-09-03T04:49:34.490Z,11.25
2022-09-03T04:50:34.480Z,11.25
2022-09-03T04:51:34.469Z,11.25
2022-09-03T04:52:34.454Z,11.25
2022-09-03T04:53:34.446Z,11.25
2022-09-03T04:54:34.432Z,16.88
2022-09-03T04:55:34.425Z,16.88
2022-09-03T04:56:34.414Z,16.88
2022-09-03T04:57:34.409Z,16.88
2022-09-03T04:58:34.389Z,16.88
2022-09-03T04:59:34.387Z,16.88
2022-09-03T05:00:34.369Z,22.50
2022-09-03T05:01:34.509Z,22.50
2022-09-03T05:02:34.390Z,22.50
2022-09-03T05:03:34.334Z,22.50
2022-09-03T05:04:34.320Z,22.50
2022-09-03T05:05:34.310Z,22.50
2022-09-03T05:06:34.296Z,22.50
2022-09-03T05:07:34.291Z,22.50
2022-09-03T05:08:34.279Z,28.12
2022-09-03T05:09:34.266Z,28.12
2022-09-03T05:10:34.253Z,28.12
2022-09-03T05:11:34.248Z,28.12
2022-09-03T05:12:34.232Z,28.12
2022-09-03T05:13:34.222Z,28.12
2022-09-03T05:14:34.208Z,28.12
2022-09-03T05:15:34.203Z,28.12
2022-09-03T05:16:34.318Z,28.12
2022-09-03T05:17:37.677Z,33.75
2022-09-03T05:18:34.164Z,33.75
2022-09-03T05:19:34.153Z,33.75
2022-09-03T05:20:34.144Z,33.75
2022-09-03T05:21:34.135Z,39.38
2022-09-03T05:22:34.119Z,39.38
2022-09-03T05:23:37.548Z,45.00
2022-09-03T05:24:34.100Z,50.62
2022-09-03T05:25:34.087Z,50.62
2022-09-03T05:26:34.074Z,56.25
2022-09-03T05:27:34.065Z,61.88
2022-09-03T05:28:34.051Z,61.88
2022-09-03T05:29:34.051Z,67.50
2022-09-03T05:30:34.029Z,73.12
2022-09-03T05:31:34.090Z,73.12
2022-09-03T05:32:34.007Z,78.75
2022-09-03T05:33:33.997Z,78.75
2022-09-03T05:34:33.986Z,78.75
2022-09-03T05:35:34.078Z,84.38
2022-09-03T05:36:33.980Z,84.38
2022-09-03T05:37:33.983Z,90.00
2022-09-03T05:38:33.944Z,90.00
2022-09-03T05:39:34.007Z,95.62
2022-09-03T05:40:33.918Z,95.62
2022-09-03T05:41:33.915Z,95.62
2022-09-03T05:42:33.905Z,101.25
2022-09-03T05:43:33.986Z,101.25
2022-09-03T05:44:33.880Z,101.25
2022-09-03T05:45:33.919Z,106.88
2022-09-03T05:46:33.882Z,112.50
2022-09-03T05:47:33.843Z,106.88
2022-09-03T05:48:33.827Z,106.88
2022-09-03T05:49:33.821Z,106.88
2022-09-03T05:50:33.818Z,106.88
2022-09-03T05:51:33.816Z,106.88
2022-09-03T05:52:33.781Z,112.50
2022-09-03T05:53:33.773Z,112.50
2022-09-03T05:54:33.762Z,118.12
2022-09-03T05:55:33.750Z,118.12
2022-09-03T05:56:33.764Z,123.75
2022-09-03T05:57:33.733Z,123.75
2022-09-03T05:58:33.720Z,123.75
2022-09-03T05:59:33.705Z,129.38
2022-09-03T06:00:33.693Z,129.38
2022-09-03T06:01:33.681Z,135.00
2022-09-03T06:02:33.719Z,135.00
2022-09-03T06:03:33.805Z,135.00
2022-09-03T06:04:33.660Z,135.00
2022-09-03T06:05:33.637Z,135.00
2022-09-03T06:06:33.624Z,140.62
2022-09-03T06:07:33.613Z,140.62
2022-09-03T06:08:33.602Z,140.62
2022-09-03T06:09:33.593Z,140.62
2022-09-03T06:10:40.703Z,140.62
2022-09-03T06:11:33.573Z,140.62
2022-09-03T06:12:33.556Z,140.62
2022-09-03T06:13:33.549Z,146.25
2022-09-03T06:14:33.533Z,151.88
2022-09-03T06:15:33.524Z,151.88
2022-09-03T06:16:33.566Z,151.88
2022-09-03T06:17:33.522Z,151.88
2022-09-03T06:18:33.494Z,151.88
2022-09-03T06:19:33.480Z,157.50
2022-09-03T06:20:36.947Z,157.50
2022-09-03T06:21:33.455Z,157.50
2022-09-03T06:22:33.445Z,163.12
2022-09-03T06:23:33.435Z,163.12
2022-09-03T06:24:33.425Z,163.12
2022-09-03T06:25:33.416Z,163.12
2022-09-03T06:26:33.401Z,168.75
2022-09-03T06:27:33.392Z,168.75
2022-09-03T06:28:33.380Z,168.75
2022-09-03T06:29:33.383Z,168.75
2022-09-03T06:30:33.360Z,168.75
2022-09-03T06:31:33.423Z,168.75
2022-09-03T06:32:33.341Z,168.75
2022-09-03T06:33:33.326Z,168.75
2022-09-03T06:34:33.312Z,174.38
2022-09-03T06:35:35.638Z,185.62
2022-09-03T06:36:34.333Z,196.88
2022-09-03T06:37:33.281Z,219.38
2022-09-03T06:38:33.269Z,202.50
2022-09-03T06:39:33.348Z,191.25
2022-09-03T06:40:33.255Z,185.62
2022-09-03T06:41:33.259Z,180.00
2022-09-03T06:42:33.221Z,174.38
2022-09-03T06:43:33.213Z,208.12
2022-09-03T06:44:33.198Z,191.25
2022-09-03T06:45:33.284Z,168.75
2022-09-03T06:46:33.216Z,174.38
2022-09-03T06:47:33.165Z,241.88
2022-09-03T06:48:33.150Z,180.00
2022-09-03T06:49:33.143Z,180.00
2022-09-03T06:50:34.754Z,196.88
2022-09-03T06:51:33.167Z,191.25
2022-09-03T06:52:33.109Z,146.25
2022-09-03T06:53:33.097Z,151.88
2022-09-03T06:54:33.085Z,151.88
2022-09-03T06:55:33.079Z,151.88
2022-09-03T06:56:37.410Z,174.38
2022-09-03T06:57:34.092Z,185.62
2022-09-03T06:58:33.039Z,315.00
2022-09-03T06:59:33.032Z,320.62
2022-09-03T07:00:33.088Z,382.50
2022-09-03T07:01:33.217Z,405.00
2022-09-03T07:02:33.012Z,438.75
2022-09-03T07:03:32.986Z,438.75
2022-09-03T07:04:32.974Z,410.62
2022-09-03T07:05:32.971Z,416.25
2022-09-03T07:06:32.953Z,365.62
2022-09-03T07:07:32.944Z,360.00
2022-09-03T07:08:32.927Z,360.00
2022-09-03T07:09:32.920Z,416.25
2022-09-03T07:10:32.906Z,433.12
2022-09-03T07:11:33.056Z,416.25
2022-09-03T07:12:32.891Z,376.88
2022-09-03T07:13:32.874Z,315.00
2022-09-03T07:14:32.864Z,219.38
2022-09-03T07:15:32.855Z,174.38
2022-09-03T07:16:32.924Z,168.75
2022-09-03T07:17:32.832Z,174.38
2022-09-03T07:18:32.819Z,253.12
2022-09-03T07:19:33.058Z,472.50
2022-09-03T07:20:32.870Z,517.50
2022-09-03T07:21:32.786Z,517.50
2022-09-03T07:22:32.796Z,528.75
2022-09-03T07:23:32.763Z,528.75
2022-09-03T07:24:32.757Z,534.38
2022-09-03T07:25:32.742Z,551.25
2022-09-03T07:26:32.731Z,562.50
2022-09-03T07:27:32.723Z,579.38
2022-09-03T07:28:32.705Z,590.62
2022-09-03T07:29:32.699Z,630.00
2022-09-03T07:30:32.685Z,618.75
2022-09-03T07:31:32.780Z,568.12
2022-09-03T07:32:32.664Z,573.75
2022-09-03T07:33:33.904Z,579.38
2022-09-03T07:34:32.643Z,590.62
2022-09-03T07:35:32.638Z,585.00
2022-09-03T07:36:35.325Z,590.62
2022-09-03T07:37:32.615Z,596.25
2022-09-03T07:38:32.601Z,646.88
2022-09-03T07:39:32.700Z,680.62
2022-09-03T07:40:32.596Z,686.25
2022-09-03T07:41:32.769Z,669.38
2022-09-03T07:42:32.844Z,652.50
2022-09-03T07:43:32.542Z,658.12
2022-09-03T07:44:32.530Z,675.00
2022-09-03T07:45:32.626Z,675.00
2022-09-03T07:46:32.561Z,669.38
2022-09-03T07:47:32.500Z,675.00
2022-09-03T07:48:37.159Z,703.12
2022-09-03T07:49:32.491Z,708.75
2022-09-03T07:50:32.504Z,675.00
2022-09-03T07:51:32.473Z,669.38
2022-09-03T07:52:32.540Z,675.00
2022-09-03T07:53:32.700Z,669.38
2022-09-03T07:54:32.473Z,691.88
2022-09-03T07:55:32.425Z,708.75
2022-09-03T07:56:32.408Z,714.38
2022-09-03T07:57:32.393Z,725.62
2022-09-03T07:58:32.380Z,725.62
2022-09-03T07:59:32.369Z,742.50
2022-09-03T08:00:32.447Z,787.50
2022-09-03T08:01:32.347Z,781.88
2022-09-03T08:02:32.333Z,787.50
2022-09-03T08:03:32.612Z,815.62
2022-09-03T08:04:32.627Z,776.25
2022-09-03T08:05:32.305Z,776.25
2022-09-03T08:06:32.292Z,781.88
2022-09-03T08:07:32.293Z,765.00
2022-09-03T08:08:35.584Z,770.62
2022-09-03T08:09:32.261Z,765.00
2022-09-03T08:10:32.259Z,776.25
2022-09-03T08:11:32.310Z,798.75
2022-09-03T08:12:32.233Z,815.62
2022-09-03T08:13:32.224Z,855.00
2022-09-03T08:14:32.223Z,826.88
2022-09-03T08:15:32.218Z,798.75
2022-09-03T08:16:32.301Z,815.62
2022-09-03T08:17:32.235Z,810.00
2022-09-03T08:18:32.435Z,781.88
2022-09-03T08:19:32.154Z,776.25
2022-09-03T08:20:32.421Z,849.38
2022-09-03T08:21:32.131Z,815.62
2022-09-03T08:22:32.120Z,765.00
2022-09-03T08:23:32.107Z,810.00
2022-09-03T08:24:32.116Z,821.25
2022-09-03T08:25:32.119Z,798.75
2022-09-03T08:26:32.100Z,821.25
2022-09-03T08:27:32.067Z,849.38
2022-09-03T08:28:32.057Z,838.12
2022-09-03T08:29:32.047Z,838.12
2022-09-03T08:30:32.032Z,832.50
2022-09-03T08:31:32.163Z,866.25
2022-09-03T08:32:32.011Z,855.00
2022-09-03T08:33:32.002Z,838.12
2022-09-03T08:34:31.989Z,849.38
2022-09-03T08:35:31.975Z,877.50
2022-09-03T08:36:31.967Z,894.38
2022-09-03T08:37:31.952Z,905.62
2022-09-03T08:38:31.947Z,950.62
2022-09-03T08:39:32.115Z,950.62
2022-09-03T08:40:31.925Z,883.12
2022-09-03T08:41:31.911Z,905.62
2022-09-03T08:42:32.051Z,950.62
2022-09-03T08:43:31.889Z,939.38
2022-09-03T08:44:31.888Z,939.38
2022-09-03T08:45:31.876Z,911.25
2022-09-03T08:46:31.902Z,900.00
2022-09-03T08:47:31.857Z,911.25
2022-09-03T08:48:31.840Z,905.62
2022-09-03T08:49:32.013Z,900.00
2022-09-03T08:50:31.949Z,922.50
2022-09-03T08:51:31.832Z,950.62
2022-09-03T08:52:31.796Z,978.75
2022-09-03T08:53:31.784Z,928.12
2022-09-03T08:54:31.782Z,843.75
2022-09-03T08:55:31.764Z,821.25
2022-09-03T08:56:31.803Z,849.38
2022-09-03T08:57:31.743Z,866.25
2022-09-03T08:58:31.732Z,883.12
2022-09-03T08:59:32.905Z,871.88
2022-09-03T09:00:31.740Z,849.38
2022-09-03T09:01:31.787Z,871.88
2022-09-03T09:02:31.907Z,905.62
2022-09-03T09:03:31.687Z,883.12
2022-09-03T09:04:31.676Z,877.50
2022-09-03T09:05:31.661Z,905.62
2022-09-03T09:06:31.647Z,877.50
2022-09-03T09:07:31.640Z,894.38
2022-09-03T09:08:31.633Z,905.62
2022-09-03T09:09:31.618Z,928.12
2022-09-03T09:10:31.606Z,916.88
2022-09-03T09:11:31.651Z,916.88
2022-09-03T09:12:39.793Z,990.00
2022-09-03T09:13:32.604Z,1029.38
2022-09-03T09:14:31.570Z,1040.62
2022-09-03T09:15:31.553Z,950.62
2022-09-03T09:16:31.553Z,995.62
2022-09-03T09:17:31.541Z,1046.25
2022-09-03T09:18:31.521Z,995.62
2022-09-03T09:19:31.520Z,984.38
2022-09-03T09:20:31.505Z,1029.38
2022-09-03T09:21:31.491Z,978.75
2022-09-03T09:22:31.479Z,945.00
2022-09-03T09:23:31.474Z,967.50
2022-09-03T09:24:31.485Z,1018.12
2022-09-03T09:25:31.488Z,1119.38
2022-09-03T09:26:31.437Z,1113.75
2022-09-03T09:27:31.430Z,1035.00
2022-09-03T09:28:31.616Z,995.62
2022-09-03T09:29:31.464Z,978.75
2022-09-03T09:30:31.498Z,961.88
2022-09-03T09:31:31.518Z,950.62
2022-09-03T09:32:31.416Z,939.38
2022-09-03T09:33:31.501Z,950.62
2022-09-03T09:34:31.459Z,939.38
2022-09-03T09:35:31.391Z,950.62
2022-09-03T09:36:31.392Z,1051.88
2022-09-03T09:37:31.457Z,1080.00
2022-09-03T09:38:31.566Z,1080.00
2022-09-03T09:39:31.567Z,1057.50
2022-09-03T09:40:32.094Z,1035.00
2022-09-03T09:41:31.551Z,1035.00
2022-09-03T09:42:31.350Z,995.62
2022-09-03T09:43:31.334Z,1001.25
2022-09-03T09:45:05.589Z,978.75
2022-09-03T09:46:05.639Z,956.25
2022-09-03T09:47:05.567Z,973.12
2022-09-03T09:48:05.646Z,990.00
2022-09-03T09:49:05.558Z,967.50
2022-09-03T09:50:05.676Z,984.38
2022-09-03T09:51:05.622Z,1006.88
2022-09-03T09:52:05.543Z,1006.88
2022-09-03T09:53:05.533Z,1001.25
2022-09-03T09:54:05.541Z,1001.25
2022-09-03T09:55:05.677Z,978.75
2022-09-03T09:56:05.675Z,990.00
2022-09-03T09:57:05.680Z,1018.12
2022-09-03T09:58:05.532Z,1046.25
2022-09-03T09:59:05.569Z,1029.38
2022-09-03T10:00:05.570Z,1035.00
2022-09-03T10:01:06.126Z,1113.75
2022-09-03T10:02:05.470Z,1136.25
2022-09-03T10:03:05.464Z,1068.75
2022-09-03T10:04:05.382Z,1018.12
2022-09-03T10:05:05.419Z,1035.00
2022-09-03T10:06:05.321Z,1096.88
2022-09-03T10:07:05.310Z,1080.00
2022-09-03T10:08:05.301Z,1091.25
2022-09-03T10:09:05.295Z,1091.25
2022-09-03T10:10:06.552Z,1113.75
2022-09-03T10:11:05.277Z,1141.88
2022-09-03T10:12:05.268Z,1125.00
2022-09-03T10:13:05.251Z,1113.75
2022-09-03T10:14:05.245Z,1125.00
2022-09-03T10:15:05.235Z,1113.75
2022-09-03T10:16:05.325Z,1130.62
2022-09-03T10:17:05.209Z,1068.75
2022-09-03T10:18:05.215Z,1085.62
2022-09-03T10:19:05.370Z,1074.38
2022-09-03T10:20:05.470Z,1057.50
2022-09-03T10:21:05.179Z,1147.50
2022-09-03T10:22:05.163Z,1164.38
2022-09-03T10:23:05.412Z,1192.50
2022-09-03T10:24:07.180Z,1220.62
2022-09-03T10:25:05.137Z,1153.12
2022-09-03T10:26:05.137Z,1108.12
2022-09-03T10:27:05.151Z,1074.38
2022-09-03T10:28:05.108Z,1023.75
2022-09-03T10:29:05.094Z,1091.25
2022-09-03T10:30:05.125Z,556.88
2022-09-03T10:31:05.419Z,866.25
2022-09-03T10:32:05.069Z,1119.38
2022-09-03T10:33:05.051Z,1108.12
2022-09-03T10:34:05.119Z,1130.62
2022-09-03T10:35:05.188Z,258.75
2022-09-03T10:36:05.027Z,247.50
2022-09-03T10:37:05.014Z,292.50
2022-09-03T10:38:05.004Z,1186.88
2022-09-03T10:39:04.993Z,1175.62
2022-09-03T10:40:05.307Z,1175.62
2022-09-03T10:41:04.978Z,1209.38
2022-09-03T10:42:04.962Z,1147.50
2022-09-03T10:43:04.955Z,1057.50
2022-09-03T10:44:04.960Z,1085.62
2022-09-03T10:45:04.938Z,1125.00
2022-09-03T10:46:04.970Z,1170.00
2022-09-03T10:47:04.913Z,1203.75
2022-09-03T10:48:04.904Z,1209.38
2022-09-03T10:49:04.891Z,1226.25
2022-09-03T10:50:04.883Z,1198.12
2022-09-03T10:51:04.880Z,1203.75
2022-09-03T10:52:04.865Z,1209.38
2022-09-03T10:53:04.867Z,1209.38
2022-09-03T10:54:04.844Z,1186.88
2022-09-03T10:55:04.853Z,1209.38
2022-09-03T10:56:04.828Z,1305.00
2022-09-03T10:57:04.823Z,1293.75
2022-09-03T10:58:04.806Z,1276.88
2022-09-03T10:59:05.046Z,1237.50
2022-09-03T11:00:04.781Z,1203.75
2022-09-03T11:01:04.832Z,1108.12
2022-09-03T11:02:04.789Z,1316.25
2022-09-03T11:03:04.814Z,1355.62
2022-09-03T11:04:04.741Z,770.62
2022-09-03T11:05:04.735Z,399.38
2022-09-03T11:06:04.724Z,376.88
2022-09-03T11:07:04.713Z,354.38
2022-09-03T11:08:04.709Z,1237.50
2022-09-03T11:09:06.764Z,416.25
2022-09-03T11:10:04.681Z,382.50
2022-09-03T11:11:04.678Z,714.38
2022-09-03T11:12:04.660Z,1271.25
2022-09-03T11:13:04.653Z,1243.12
2022-09-03T11:14:04.661Z,1203.75
2022-09-03T11:15:04.646Z,258.75
2022-09-03T11:16:04.682Z,348.75
2022-09-03T11:17:04.610Z,270.00
2022-09-03T11:18:04.599Z,348.75
2022-09-03T11:19:04.593Z,1186.88
2022-09-03T11:20:04.581Z,1231.88
2022-09-03T11:21:06.687Z,1220.62
2022-09-03T11:22:04.568Z,1192.50
2022-09-03T11:23:04.552Z,1175.62
2022-09-03T11:24:04.546Z,1085.62
2022-09-03T11:25:04.553Z,1068.75
2022-09-03T11:26:04.542Z,1215.00
2022-09-03T11:27:04.510Z,1237.50
2022-09-03T11:28:04.502Z,1091.25
2022-09-03T11:29:04.485Z,1080.00
2022-09-03T11:30:04.481Z,1096.88
2022-09-03T11:31:04.508Z,1051.88
2022-09-03T11:32:04.459Z,1001.25
2022-09-03T11:33:04.452Z,1001.25
2022-09-03T11:34:04.440Z,1085.62
2022-09-03T11:35:04.433Z,1181.25
2022-09-03T11:36:04.416Z,1170.00
2022-09-03T11:37:04.682Z,1153.12
2022-09-03T11:38:04.398Z,1113.75
2022-09-03T11:39:04.397Z,1057.50
2022-09-03T11:40:04.472Z,1040.62
2022-09-03T11:41:04.372Z,1029.38
2022-09-03T11:42:04.359Z,1029.38
2022-09-03T11:43:04.349Z,1063.12
2022-09-03T11:44:04.742Z,1085.62
2022-09-03T11:45:04.351Z,1153.12
2022-09-03T11:46:04.407Z,1147.50
2022-09-03T11:47:04.312Z,1108.12
2022-09-03T11:48:04.299Z,1119.38
2022-09-03T11:49:04.336Z,1125.00
2022-09-03T11:50:04.317Z,1153.12
2022-09-03T11:51:04.456Z,1153.12
2022-09-03T11:52:04.259Z,1108.12
2022-09-03T11:53:04.253Z,1108.12
2022-09-03T11:54:04.253Z,1091.25
2022-09-03T11:55:04.224Z,1085.62
2022-09-03T11:56:04.212Z,1108.12
2022-09-03T11:57:04.206Z,1147.50
2022-09-03T11:58:04.193Z,1158.75
2022-09-03T11:59:04.190Z,1108.12
2022-09-03T12:00:04.174Z,1119.38
2022-09-03T12:01:04.169Z,1085.62
2022-09-03T12:02:04.187Z,1096.88
2022-09-03T12:03:04.223Z,1108.12
2022-09-03T12:04:04.139Z,1080.00
2022-09-03T12:05:04.213Z,1102.50
2022-09-03T12:06:04.117Z,1119.38
2022-09-03T12:07:04.105Z,1085.62
2022-09-03T12:08:08.651Z,1063.12
2022-09-03T12:09:04.124Z,1096.88
2022-09-03T12:10:04.078Z,1119.38
2022-09-03T12:11:04.068Z,1113.75
2022-09-03T12:12:04.057Z,1113.75
2022-09-03T12:13:04.050Z,1158.75
2022-09-03T12:14:04.068Z,1164.38
2022-09-03T12:15:04.051Z,1091.25
2022-09-03T12:16:04.062Z,1096.88
2022-09-03T12:17:04.013Z,1130.62
2022-09-03T12:18:03.997Z,1130.62
2022-09-03T12:19:03.989Z,1119.38
2022-09-03T12:20:03.975Z,253.12
2022-09-03T12:21:03.971Z,253.12
2022-09-03T12:22:03.958Z,281.25
2022-09-03T12:23:03.954Z,1192.50
2022-09-03T12:24:03.937Z,1091.25
2022-09-03T12:25:03.934Z,1091.25
2022-09-03T12:26:03.992Z,1063.12
2022-09-03T12:27:03.933Z,1102.50
2022-09-03T12:28:03.904Z,1102.50
2022-09-03T12:29:03.894Z,1102.50
2022-09-03T12:30:03.888Z,1209.38
2022-09-03T12:31:03.950Z,1125.00
2022-09-03T12:32:03.866Z,843.75
2022-09-03T12:33:03.855Z,1046.25
2022-09-03T12:34:03.894Z,1046.25
2022-09-03T12:35:03.840Z,1074.38
2022-09-03T12:36:03.982Z,1068.75
2022-09-03T12:37:03.819Z,1074.38
2022-09-03T12:38:05.880Z,1029.38
2022-09-03T12:39:12.774Z,905.62
2022-09-03T12:40:07.492Z,978.75
2022-09-03T12:42:03.881Z,956.25
2022-09-03T12:44:03.750Z,928.12
2022-09-03T12:45:03.743Z,849.38
2022-09-03T12:46:11.420Z,230.62